sensor_id;sensor_type;location;lat;lon;timestamp;pressure;altitude;pressure_sealevel;temperature;humidity
76156;BME280;64906;51.290;7.348;2023-07-08T00:02:12;98888.31;;;24.36;41.68
76156;BME280;64906;51.290;7.348;2023-07-08T00:04:39;98887.63;;;24.31;41.58
76156;BME280;64906;51.290;7.348;2023-07-08T00:07:05;98875.59;;;24.27;41.43
76156;BME280;64906;51.290;7.348;2023-07-08T00:09:31;98880.19;;;24.31;41.60
76156;BME280;64906;51.290;7.348;2023-07-08T00:11:56;98880.31;;;24.26;41.53
76156;BME280;64906;51.290;7.348;2023-07-08T00:14:22;98876.44;;;24.27;41.77
76156;BME280;64906;51.290;7.348;2023-07-08T00:16:48;98868.47;;;24.26;41.64
76156;BME280;64906;51.290;7.348;2023-07-08T00:19:14;98872.84;;;24.27;41.45
76156;BME280;64906;51.290;7.348;2023-07-08T00:21:46;98868.16;;;24.27;41.61
76156;BME280;64906;51.290;7.348;2023-07-08T00:24:12;98866.69;;;24.30;41.39
76156;BME280;64906;51.290;7.348;2023-07-08T00:26:37;98866.19;;;24.28;41.59
76156;BME280;64906;51.290;7.348;2023-07-08T00:29:05;98864.56;;;24.27;41.62
76156;BME280;64906;51.290;7.348;2023-07-08T00:31:33;98866.69;;;24.30;41.55
76156;BME280;64906;51.290;7.348;2023-07-08T00:33:58;98862.78;;;24.31;41.32
76156;BME280;64906;51.290;7.348;2023-07-08T00:36:26;98859.88;;;24.27;41.71
76156;BME280;64906;51.290;7.348;2023-07-08T00:38:53;98854.97;;;24.24;41.45
76156;BME280;64906;51.290;7.348;2023-07-08T00:41:22;98851.16;;;24.34;41.31
76156;BME280;64906;51.290;7.348;2023-07-08T00:43:53;98857.28;;;24.31;41.13
76156;BME280;64906;51.290;7.348;2023-07-08T00:49:14;98860.53;;;24.33;41.47
76156;BME280;64906;51.290;7.348;2023-07-08T00:51:41;98863.44;;;24.28;41.52
76156;BME280;64906;51.290;7.348;2023-07-08T00:54:18;98854.69;;;24.26;41.45
76156;BME280;64906;51.290;7.348;2023-07-08T00:59:23;98854.03;;;24.29;41.58
76156;BME280;64906;51.290;7.348;2023-07-08T01:01:50;98849.16;;;24.26;41.51
76156;BME280;64906;51.290;7.348;2023-07-08T01:04:24;98843.47;;;24.22;41.54
76156;BME280;64906;51.290;7.348;2023-07-08T01:06:55;98841.03;;;24.21;41.75
76156;BME280;64906;51.290;7.348;2023-07-08T01:09:30;98837.75;;;24.19;41.58
76156;BME280;64906;51.290;7.348;2023-07-08T01:11:58;98838.91;;;24.26;41.74
76156;BME280;64906;51.290;7.348;2023-07-08T01:14:27;98832.09;;;24.24;41.24
76156;BME280;64906;51.290;7.348;2023-07-08T01:16:57;98836.97;;;24.27;41.60
76156;BME280;64906;51.290;7.348;2023-07-08T01:19:22;98833.53;;;24.21;41.29
76156;BME280;64906;51.290;7.348;2023-07-08T01:24:23;98830.28;;;24.19;41.42
76156;BME280;64906;51.290;7.348;2023-07-08T01:26:49;98833.53;;;24.21;41.65
76156;BME280;64906;51.290;7.348;2023-07-08T01:29:14;98828.19;;;24.25;41.64
76156;BME280;64906;51.290;7.348;2023-07-08T01:31:40;98826.91;;;24.22;41.17
76156;BME280;64906;51.290;7.348;2023-07-08T01:34:05;98822.81;;;24.20;41.78
76156;BME280;64906;51.290;7.348;2023-07-08T01:36:38;98826.72;;;24.19;41.45
76156;BME280;64906;51.290;7.348;2023-07-08T01:39:04;98825.25;;;24.21;41.49
76156;BME280;64906;51.290;7.348;2023-07-08T01:41:29;98831.41;;;24.18;41.60
76156;BME280;64906;51.290;7.348;2023-07-08T01:43:54;98827.50;;;24.19;41.52
76156;BME280;64906;51.290;7.348;2023-07-08T01:46:23;98822.00;;;24.19;41.59
76156;BME280;64906;51.290;7.348;2023-07-08T01:48:52;98817.13;;;24.16;41.67
76156;BME280;64906;51.290;7.348;2023-07-08T01:51:18;98821.53;;;24.17;41.42
76156;BME280;64906;51.290;7.348;2023-07-08T01:53:44;98810.16;;;24.19;41.71
76156;BME280;64906;51.290;7.348;2023-07-08T01:56:12;98812.41;;;24.17;41.34
76156;BME280;64906;51.290;7.348;2023-07-08T01:58:38;98809.34;;;24.18;41.45
76156;BME280;64906;51.290;7.348;2023-07-08T02:01:04;98810.50;;;24.17;41.69
76156;BME280;64906;51.290;7.348;2023-07-08T02:03:29;98808.66;;;24.13;41.89
76156;BME280;64906;51.290;7.348;2023-07-08T02:05:55;98807.84;;;24.12;41.86
76156;BME280;64906;51.290;7.348;2023-07-08T02:08:20;98803.47;;;24.11;42.00
76156;BME280;64906;51.290;7.348;2023-07-08T02:10:50;98805.91;;;24.13;41.92
76156;BME280;64906;51.290;7.348;2023-07-08T02:13:15;98800.88;;;24.15;41.76
76156;BME280;64906;51.290;7.348;2023-07-08T02:15:41;98804.09;;;24.08;41.65
76156;BME280;64906;51.290;7.348;2023-07-08T02:18:06;98808.50;;;24.09;41.80
76156;BME280;64906;51.290;7.348;2023-07-08T02:20:31;98799.41;;;24.09;41.70
76156;BME280;64906;51.290;7.348;2023-07-08T02:22:56;98801.00;;;24.10;41.60
76156;BME280;64906;51.290;7.348;2023-07-08T02:25:22;98801.00;;;24.10;41.89
76156;BME280;64906;51.290;7.348;2023-07-08T02:27:48;98801.00;;;24.10;41.96
76156;BME280;64906;51.290;7.348;2023-07-08T02:30:13;98794.72;;;24.09;41.67
76156;BME280;64906;51.290;7.348;2023-07-08T02:32:38;98792.56;;;24.06;42.02
76156;BME280;64906;51.290;7.348;2023-07-08T02:35:08;98794.72;;;24.09;41.92
76156;BME280;64906;51.290;7.348;2023-07-08T02:37:33;98794.72;;;24.09;41.93
76156;BME280;64906;51.290;7.348;2023-07-08T02:39:59;98788.19;;;24.05;41.69
76156;BME280;64906;51.290;7.348;2023-07-08T02:42:24;98792.41;;;24.03;42.00
76156;BME280;64906;51.290;7.348;2023-07-08T02:44:49;98797.94;;;24.11;41.85
76156;BME280;64906;51.290;7.348;2023-07-08T02:47:15;98789.50;;;24.08;41.60
76156;BME280;64906;51.290;7.348;2023-07-08T02:49:40;98795.03;;;24.08;42.10
76156;BME280;64906;51.290;7.348;2023-07-08T02:52:06;98788.19;;;24.05;41.64
76156;BME280;64906;51.290;7.348;2023-07-08T02:54:31;98784.59;;;24.05;42.04
76156;BME280;64906;51.290;7.348;2023-07-08T02:56:56;98789.13;;;24.01;42.07
76156;BME280;64906;51.290;7.348;2023-07-08T02:59:21;98794.66;;;24.01;41.61
76156;BME280;64906;51.290;7.348;2023-07-08T03:01:47;98794.53;;;24.06;41.70
76156;BME280;64906;51.290;7.348;2023-07-08T03:04:12;98790.81;;;24.10;41.54
76156;BME280;64906;51.290;7.348;2023-07-08T03:06:45;98794.88;;;24.13;41.65
76156;BME280;64906;51.290;7.348;2023-07-08T03:09:11;98799.09;;;24.10;42.00
76156;BME280;64906;51.290;7.348;2023-07-08T03:11:38;98792.56;;;24.06;41.67
76156;BME280;64906;51.290;7.348;2023-07-08T03:14:04;98799.22;;;24.05;42.12
76156;BME280;64906;51.290;7.348;2023-07-08T03:16:30;98791.56;;;24.02;42.03
76156;BME280;64906;51.290;7.348;2023-07-08T03:18:55;98799.53;;;24.04;42.12
76156;BME280;64906;51.290;7.348;2023-07-08T03:21:20;98793.19;;;24.03;41.70
76156;BME280;64906;51.290;7.348;2023-07-08T03:23:48;98789.44;;;23.99;42.03
76156;BME280;64906;51.290;7.348;2023-07-08T03:26:20;98791.56;;;24.02;41.70
76156;BME280;64906;51.290;7.348;2023-07-08T03:28:47;98798.22;;;24.01;41.94
76156;BME280;64906;51.290;7.348;2023-07-08T03:31:12;98792.72;;;24.01;41.94
76156;BME280;64906;51.290;7.348;2023-07-08T03:33:38;98784.72;;;24.00;41.79
76156;BME280;64906;51.290;7.348;2023-07-08T03:36:12;98791.56;;;24.02;41.75
76156;BME280;64906;51.290;7.348;2023-07-08T03:38:38;98787.19;;;24.01;41.65
76156;BME280;64906;51.290;7.348;2023-07-08T03:41:04;98792.72;;;24.01;41.86
76156;BME280;64906;51.290;7.348;2023-07-08T03:43:30;98792.72;;;24.01;41.99
76156;BME280;64906;51.290;7.348;2023-07-08T03:45:55;98792.06;;;24.04;41.63
76156;BME280;64906;51.290;7.348;2023-07-08T03:48:20;98798.06;;;24.06;41.69
76156;BME280;64906;51.290;7.348;2023-07-08T03:50:46;98794.53;;;24.06;41.99
76156;BME280;64906;51.290;7.348;2023-07-08T03:53:11;98805.03;;;24.04;41.56
76156;BME280;64906;51.290;7.348;2023-07-08T03:55:36;98802.28;;;24.04;41.62
76156;BME280;64906;51.290;7.348;2023-07-08T03:58:01;98797.59;;;24.04;41.91
76156;BME280;64906;51.290;7.348;2023-07-08T04:00:27;98798.22;;;24.01;42.06
76156;BME280;64906;51.290;7.348;2023-07-08T04:02:52;98802.59;;;24.02;41.95
76156;BME280;64906;51.290;7.348;2023-07-08T04:05:20;98800.03;;;24.06;41.96
76156;BME280;64906;51.290;7.348;2023-07-08T04:07:46;98795.94;;;24.03;41.69
76156;BME280;64906;51.290;7.348;2023-07-08T04:10:12;98805.22;;;24.07;41.58
76156;BME280;64906;51.290;7.348;2023-07-08T04:12:38;98808.19;;;24.11;41.76
76156;BME280;64906;51.290;7.348;2023-07-08T04:15:04;98814.00;;;24.09;41.62
76156;BME280;64906;51.290;7.348;2023-07-08T04:17:29;98812.38;;;24.08;41.91
76156;BME280;64906;51.290;7.348;2023-07-08T04:19:55;98810.94;;;24.11;41.93
76156;BME280;64906;51.290;7.348;2023-07-08T04:22:22;98805.75;;;24.09;41.59
76156;BME280;64906;51.290;7.348;2023-07-08T04:24:47;98817.38;;;24.06;41.92
76156;BME280;64906;51.290;7.348;2023-07-08T04:27:14;98823.53;;;24.03;41.88
76156;BME280;64906;51.290;7.348;2023-07-08T04:29:40;98815.88;;;24.00;42.14
76156;BME280;64906;51.290;7.348;2023-07-08T04:32:06;98813.63;;;24.02;41.68
76156;BME280;64906;51.290;7.348;2023-07-08T04:34:31;98809.25;;;24.01;42.00
76156;BME280;64906;51.290;7.348;2023-07-08T04:36:57;98814.16;;;24.04;41.58
76156;BME280;64906;51.290;7.348;2023-07-08T04:39:22;98817.69;;;24.05;41.96
76156;BME280;64906;51.290;7.348;2023-07-08T04:41:47;98821.59;;;24.04;42.11
76156;BME280;64906;51.290;7.348;2023-07-08T04:44:13;98824.16;;;24.00;41.76
76156;BME280;64906;51.290;7.348;2023-07-08T04:46:41;98819.84;;;24.08;42.02
76156;BME280;64906;51.290;7.348;2023-07-08T04:49:08;98817.69;;;24.05;41.58
76156;BME280;64906;51.290;7.348;2023-07-08T04:51:39;98814.63;;;24.06;41.54
76156;BME280;64906;51.290;7.348;2023-07-08T04:54:05;98815.13;;;24.08;41.74
76156;BME280;64906;51.290;7.348;2023-07-08T04:56:39;98821.16;;;24.10;41.53
76156;BME280;64906;51.290;7.348;2023-07-08T04:59:05;98818.91;;;24.12;41.59
76156;BME280;64906;51.290;7.348;2023-07-08T05:01:31;98824.41;;;24.12;41.76
76156;BME280;64906;51.290;7.348;2023-07-08T05:03:56;98821.84;;;24.16;41.76
76156;BME280;64906;51.290;7.348;2023-07-08T05:06:21;98817.94;;;24.17;41.72
76156;BME280;64906;51.290;7.348;2023-07-08T05:08:47;98813.25;;;24.17;41.70
76156;BME280;64906;51.290;7.348;2023-07-08T05:11:12;98817.63;;;24.18;41.39
76156;BME280;64906;51.290;7.348;2023-07-08T05:13:37;98814.88;;;24.18;41.69
76156;BME280;64906;51.290;7.348;2023-07-08T05:16:02;98829.84;;;24.26;41.47
76156;BME280;64906;51.290;7.348;2023-07-08T05:18:28;98819.97;;;24.33;41.12
76156;BME280;64906;51.290;7.348;2023-07-08T05:20:53;98826.00;;;24.35;41.01
76156;BME280;64906;51.290;7.348;2023-07-08T05:23:20;98819.19;;;24.41;40.83
76156;BME280;64906;51.290;7.348;2023-07-08T05:25:45;98819.03;;;24.38;41.12
76156;BME280;64906;51.290;7.348;2023-07-08T05:28:11;98818.84;;;24.34;41.45
76156;BME280;64906;51.290;7.348;2023-07-08T05:30:36;98815.28;;;24.34;41.43
76156;BME280;64906;51.290;7.348;2023-07-08T05:33:04;98821.13;;;24.32;40.95
76156;BME280;64906;51.290;7.348;2023-07-08T05:35:29;98818.50;;;24.36;41.12
76156;BME280;64906;51.290;7.348;2023-07-08T05:37:55;98812.38;;;24.39;41.00
76156;BME280;64906;51.290;7.348;2023-07-08T05:40:20;98809.00;;;24.42;40.72
76156;BME280;64906;51.290;7.348;2023-07-08T05:42:45;98813.69;;;24.41;41.28
76156;BME280;64906;51.290;7.348;2023-07-08T05:45:10;98809.78;;;24.42;41.23
76156;BME280;64906;51.290;7.348;2023-07-08T05:47:37;98817.28;;;24.50;40.65
76156;BME280;64906;51.290;7.348;2023-07-08T05:50:02;98816.63;;;24.45;40.80
76156;BME280;64906;51.290;7.348;2023-07-08T05:52:28;98808.53;;;24.48;41.00
76156;BME280;64906;51.290;7.348;2023-07-08T05:54:53;98805.13;;;24.51;40.83
76156;BME280;64906;51.290;7.348;2023-07-08T05:57:20;98801.38;;;24.47;40.76
76156;BME280;64906;51.290;7.348;2023-07-08T05:59:45;98801.38;;;24.47;40.99
76156;BME280;64906;51.290;7.348;2023-07-08T06:02:11;98803.97;;;24.52;40.77
76156;BME280;64906;51.290;7.348;2023-07-08T06:04:37;98807.88;;;24.51;40.89
76156;BME280;64906;51.290;7.348;2023-07-08T06:07:02;98809.50;;;24.52;40.68
76156;BME280;64906;51.290;7.348;2023-07-08T06:09:28;98799.47;;;24.56;40.75
76156;BME280;64906;51.290;7.348;2023-07-08T06:11:53;98806.59;;;24.57;40.76
76156;BME280;64906;51.290;7.348;2023-07-08T06:14:19;98801.41;;;24.56;41.03
76156;BME280;64906;51.290;7.348;2023-07-08T06:16:44;98806.59;;;24.57;40.75
76156;BME280;64906;51.290;7.348;2023-07-08T06:19:09;98803.19;;;24.60;40.69
76156;BME280;64906;51.290;7.348;2023-07-08T06:21:35;98811.00;;;24.58;40.83
76156;BME280;64906;51.290;7.348;2023-07-08T06:24:00;98810.03;;;24.63;40.76
76156;BME280;64906;51.290;7.348;2023-07-08T06:26:25;98804.09;;;24.69;40.89
76156;BME280;64906;51.290;7.348;2023-07-08T06:28:51;98810.22;;;24.66;40.54
76156;BME280;64906;51.290;7.348;2023-07-08T06:31:16;98808.66;;;24.74;40.46
76156;BME280;64906;51.290;7.348;2023-07-08T06:33:42;98810.59;;;24.73;40.47
76156;BME280;64906;51.290;7.348;2023-07-08T06:36:07;98813.19;;;24.78;40.53
76156;BME280;64906;51.290;7.348;2023-07-08T06:38:33;98808.69;;;24.82;40.35
76156;BME280;64906;51.290;7.348;2023-07-08T06:40:58;98811.94;;;24.84;40.57
76156;BME280;64906;51.290;7.348;2023-07-08T06:43:23;98810.28;;;24.83;40.46
76156;BME280;64906;51.290;7.348;2023-07-08T06:45:49;98817.47;;;24.93;40.15
76156;BME280;64906;51.290;7.348;2023-07-08T06:48:14;98814.88;;;24.96;40.34
76156;BME280;64906;51.290;7.348;2023-07-08T06:50:42;98820.72;;;24.95;40.09
76156;BME280;64906;51.290;7.348;2023-07-08T06:53:08;98814.22;;;24.99;40.24
76156;BME280;64906;51.290;7.348;2023-07-08T06:55:33;98820.56;;;25.00;40.53
76156;BME280;64906;51.290;7.348;2023-07-08T06:57:58;98825.78;;;25.01;39.99
76156;BME280;64906;51.290;7.348;2023-07-08T07:00:24;98817.50;;;25.01;40.00
76156;BME280;64906;51.290;7.348;2023-07-08T07:02:49;98814.72;;;25.01;40.31
76156;BME280;64906;51.290;7.348;2023-07-08T07:05:14;98811.81;;;25.06;40.19
76156;BME280;64906;51.290;7.348;2023-07-08T07:07:40;98810.84;;;25.11;40.09
76156;BME280;64906;51.290;7.348;2023-07-08T07:10:05;98809.91;;;25.15;40.06
76156;BME280;64906;51.290;7.348;2023-07-08T07:12:33;98806.63;;;25.13;40.14
76156;BME280;64906;51.290;7.348;2023-07-08T07:14:58;98815.75;;;25.14;40.00
76156;BME280;64906;51.290;7.348;2023-07-08T07:17:24;98811.34;;;25.13;40.05
76156;BME280;64906;51.290;7.348;2023-07-08T07:19:50;98804.06;;;25.17;39.79
76156;BME280;64906;51.290;7.348;2023-07-08T07:22:15;98808.59;;;25.22;39.84
76156;BME280;64906;51.290;7.348;2023-07-08T07:24:41;98808.28;;;25.23;39.88
76156;BME280;64906;51.290;7.348;2023-07-08T07:27:08;98812.81;;;25.28;40.10
76156;BME280;64906;51.290;7.348;2023-07-08T07:29:49;98814.78;;;25.27;39.76
76156;BME280;64906;51.290;7.348;2023-07-08T07:32:16;98814.47;;;25.29;39.74
76156;BME280;64906;51.290;7.348;2023-07-08T07:34:42;98821.13;;;25.28;39.95
76156;BME280;64906;51.290;7.348;2023-07-08T07:37:11;98816.91;;;25.30;39.68
76156;BME280;64906;51.290;7.348;2023-07-08T07:39:37;98809.91;;;25.33;39.56
76156;BME280;64906;51.290;7.348;2023-07-08T07:42:03;98815.97;;;25.35;39.49
76156;BME280;64906;51.290;7.348;2023-07-08T07:44:28;98819.00;;;25.33;39.62
76156;BME280;64906;51.290;7.348;2023-07-08T07:46:53;98825.72;;;25.41;39.82
76156;BME280;64906;51.290;7.348;2023-07-08T07:49:19;98818.88;;;25.38;39.75
76156;BME280;64906;51.290;7.348;2023-07-08T07:51:45;98823.75;;;25.41;39.69
76156;BME280;64906;51.290;7.348;2023-07-08T07:54:10;98826.53;;;25.41;39.80
76156;BME280;64906;51.290;7.348;2023-07-08T07:56:35;98825.06;;;25.44;39.74
76156;BME280;64906;51.290;7.348;2023-07-08T07:59:01;98819.84;;;25.42;39.60
76156;BME280;64906;51.290;7.348;2023-07-08T08:01:26;98825.72;;;25.49;39.54
76156;BME280;64906;51.290;7.348;2023-07-08T08:03:51;98822.78;;;25.54;39.52
76156;BME280;64906;51.290;7.348;2023-07-08T08:06:18;98824.72;;;25.54;39.22
76156;BME280;64906;51.290;7.348;2023-07-08T08:08:46;98825.72;;;25.58;39.17
76156;BME280;64906;51.290;7.348;2023-07-08T08:11:13;98828.00;;;25.56;39.51
76156;BME280;64906;51.290;7.348;2023-07-08T08:13:38;98833.34;;;25.52;40.10
76156;BME280;64906;51.290;7.348;2023-07-08T08:16:04;98833.53;;;25.56;39.48
76156;BME280;64906;51.290;7.348;2023-07-08T08:18:29;98829.59;;;25.57;39.52
76156;BME280;64906;51.290;7.348;2023-07-08T08:20:55;98827.34;;;25.59;39.21
76156;BME280;64906;51.290;7.348;2023-07-08T08:23:21;98827.34;;;25.59;39.47
76156;BME280;64906;51.290;7.348;2023-07-08T08:25:46;98836.28;;;25.56;39.66
76156;BME280;64906;51.290;7.348;2023-07-08T08:28:12;98842.97;;;25.55;39.61
76156;BME280;64906;51.290;7.348;2023-07-08T08:30:37;98842.47;;;25.53;39.42
76156;BME280;64906;51.290;7.348;2023-07-08T08:33:03;98845.25;;;25.53;39.61
76156;BME280;64906;51.290;7.348;2023-07-08T08:35:28;98851.72;;;25.57;39.43
76156;BME280;64906;51.290;7.348;2023-07-08T08:37:54;98852.56;;;25.57;39.44
76156;BME280;64906;51.290;7.348;2023-07-08T08:40:19;98855.31;;;25.57;39.60
76156;BME280;64906;51.290;7.348;2023-07-08T08:43:16;98849.78;;;25.57;39.45
76156;BME280;64906;51.290;7.348;2023-07-08T08:46:29;98851.91;;;25.60;39.41
76156;BME280;64906;51.290;7.348;2023-07-08T08:49:05;98856.78;;;25.63;39.22
76156;BME280;64906;51.290;7.348;2023-07-08T08:51:33;98857.91;;;25.62;39.67
76156;BME280;64906;51.290;7.348;2023-07-08T08:53:58;98849.63;;;25.62;39.31
76156;BME280;64906;51.290;7.348;2023-07-08T08:56:28;98852.88;;;25.64;39.46
76156;BME280;64906;51.290;7.348;2023-07-08T09:01:47;98854.50;;;25.65;39.13
76156;BME280;64906;51.290;7.348;2023-07-08T09:04:19;98856.16;;;25.66;39.65
76156;BME280;64906;51.290;7.348;2023-07-08T09:06:47;98853.84;;;25.68;39.31
76156;BME280;64906;51.290;7.348;2023-07-08T09:09:24;98853.69;;;25.73;39.34
76156;BME280;64906;51.290;7.348;2023-07-08T09:12:10;98860.19;;;25.69;39.13
76156;BME280;64906;51.290;7.348;2023-07-08T09:14:38;98859.06;;;25.78;39.31
76156;BME280;64906;51.290;7.348;2023-07-08T09:17:31;98867.34;;;25.78;38.84
76156;BME280;64906;51.290;7.348;2023-07-08T09:22:48;98845.06;;;25.83;39.23
76156;BME280;64906;51.290;7.348;2023-07-08T09:27:53;98850.59;;;25.83;38.93
76156;BME280;64906;51.290;7.348;2023-07-08T09:30:21;98851.41;;;25.84;38.93
76156;BME280;64906;51.290;7.348;2023-07-08T09:32:48;98847.50;;;25.85;38.89
76156;BME280;64906;51.290;7.348;2023-07-08T09:35:27;98856.63;;;25.85;39.40
76156;BME280;64906;51.290;7.348;2023-07-08T09:37:54;98844.44;;;25.78;39.38
76156;BME280;64906;51.290;7.348;2023-07-08T09:40:23;98855.34;;;25.74;39.15
76156;BME280;64906;51.290;7.348;2023-07-08T09:43:16;98858.09;;;25.74;39.62
76156;BME280;64906;51.290;7.348;2023-07-08T09:45:47;98849.47;;;25.84;39.05
76156;BME280;64906;51.290;7.348;2023-07-08T09:48:34;98854.50;;;25.82;39.27
76156;BME280;64906;51.290;7.348;2023-07-08T09:51:00;98866.41;;;25.83;39.27
76156;BME280;64906;51.290;7.348;2023-07-08T09:53:26;98862.00;;;25.82;39.34
76156;BME280;64906;51.290;7.348;2023-07-08T09:55:52;98853.69;;;25.73;39.54
76156;BME280;64906;51.290;7.348;2023-07-08T09:58:32;98857.44;;;25.69;39.58
76156;BME280;64906;51.290;7.348;2023-07-08T10:01:01;98864.13;;;25.68;39.29
76156;BME280;64906;51.290;7.348;2023-07-08T10:03:33;98868.50;;;25.69;39.57
76156;BME280;64906;51.290;7.348;2023-07-08T10:06:03;98872.09;;;25.78;39.59
76156;BME280;64906;51.290;7.348;2023-07-08T10:08:50;98861.50;;;25.80;38.98
76156;BME280;64906;51.290;7.348;2023-07-08T10:11:22;98851.09;;;25.77;39.31
76156;BME280;64906;51.290;7.348;2023-07-08T10:13:52;98852.06;;;25.72;39.02
76156;BME280;64906;51.290;7.348;2023-07-08T10:16:24;98874.53;;;25.79;39.09
76156;BME280;64906;51.290;7.348;2023-07-08T10:18:51;98864.44;;;25.83;38.86
76156;BME280;64906;51.290;7.348;2023-07-08T10:21:26;98860.22;;;25.86;38.47
76156;BME280;64906;51.290;7.348;2023-07-08T10:24:22;98849.31;;;25.89;38.26
76156;BME280;64906;51.290;7.348;2023-07-08T10:32:26;98848.16;;;25.90;38.37
76156;BME280;64906;51.290;7.348;2023-07-08T10:40:29;98832.38;;;25.82;38.63
76156;BME280;64906;51.290;7.348;2023-07-08T10:46:11;98838.41;;;25.84;38.30
76156;BME280;64906;51.290;7.348;2023-07-08T10:52:05;98839.38;;;25.97;38.37
76156;BME280;64906;51.290;7.348;2023-07-08T10:57:40;98830.44;;;25.83;38.59
76156;BME280;64906;51.290;7.348;2023-07-08T11:00:23;98836.44;;;25.85;38.33
76156;BME280;64906;51.290;7.348;2023-07-08T11:06:06;98829.94;;;25.89;38.31
76156;BME280;64906;51.290;7.348;2023-07-08T11:08:47;98823.09;;;25.87;38.32
76156;BME280;64906;51.290;7.348;2023-07-08T11:11:31;98825.53;;;25.88;38.56
76156;BME280;64906;51.290;7.348;2023-07-08T11:17:27;98828.31;;;25.88;38.27
76156;BME280;64906;51.290;7.348;2023-07-08T11:20:00;98823.25;;;25.90;38.41
76156;BME280;64906;51.290;7.348;2023-07-08T11:22:29;98814.47;;;25.88;38.59
76156;BME280;64906;51.290;7.348;2023-07-08T11:24:57;98812.84;;;25.96;38.53
76156;BME280;64906;51.290;7.348;2023-07-08T11:27:28;98818.84;;;25.98;38.43
76156;BME280;64906;51.290;7.348;2023-07-08T11:32:37;98806.53;;;26.04;37.88
76156;BME280;64906;51.290;7.348;2023-07-08T11:35:05;98808.63;;;26.07;37.91
76156;BME280;64906;51.290;7.348;2023-07-08T11:37:33;98806.34;;;26.09;37.89
76156;BME280;64906;51.290;7.348;2023-07-08T11:40:07;98806.19;;;26.14;38.02
76156;BME280;64906;51.290;7.348;2023-07-08T11:42:41;98806.81;;;26.11;38.05
76156;BME280;64906;51.290;7.348;2023-07-08T11:45:32;98807.13;;;26.18;38.02
76156;BME280;64906;51.290;7.348;2023-07-08T11:48:06;98810.72;;;26.18;38.25
76156;BME280;64906;51.290;7.348;2023-07-08T11:50:39;98805.50;;;26.17;38.00
76156;BME280;64906;51.290;7.348;2023-07-08T11:53:13;98804.03;;;26.11;38.13
76156;BME280;64906;51.290;7.348;2023-07-08T11:55:59;98814.47;;;26.14;38.04
76156;BME280;64906;51.290;7.348;2023-07-08T11:58:49;98794.44;;;26.00;38.37
76156;BME280;64906;51.290;7.348;2023-07-08T12:03:55;98802.94;;;26.03;38.20
76156;BME280;64906;51.290;7.348;2023-07-08T12:08:53;98791.19;;;26.15;38.15
76156;BME280;64906;51.290;7.348;2023-07-08T12:11:24;98797.03;;;26.22;38.00
76156;BME280;64906;51.290;7.348;2023-07-08T12:13:52;98793.59;;;26.25;38.00
76156;BME280;64906;51.290;7.348;2023-07-08T12:16:18;98810.69;;;26.27;37.83
76156;BME280;64906;51.290;7.348;2023-07-08T12:18:44;98801.25;;;26.28;37.85
76156;BME280;64906;51.290;7.348;2023-07-08T12:21:11;98787.59;;;26.23;37.82
76156;BME280;64906;51.290;7.348;2023-07-08T12:23:43;98794.78;;;26.07;37.91
76156;BME280;64906;51.290;7.348;2023-07-08T12:26:08;98800.63;;;25.97;38.19
76156;BME280;64906;51.290;7.348;2023-07-08T12:28:36;98793.63;;;26.16;37.72
76156;BME280;64906;51.290;7.348;2023-07-08T12:31:02;98795.88;;;26.23;37.70
76156;BME280;64906;51.290;7.348;2023-07-08T12:33:33;98796.38;;;26.25;37.48
76156;BME280;64906;51.290;7.348;2023-07-08T12:36:00;98795.03;;;26.31;37.68
76156;BME280;64906;51.290;7.348;2023-07-08T12:38:32;98794.72;;;26.32;37.73
76156;BME280;64906;51.290;7.348;2023-07-08T12:41:00;98783.81;;;26.27;37.75
76156;BME280;64906;51.290;7.348;2023-07-08T12:43:26;98789.50;;;26.31;37.50
76156;BME280;64906;51.290;7.348;2023-07-08T12:45:52;98781.03;;;26.27;37.71
76156;BME280;64906;51.290;7.348;2023-07-08T12:48:17;98788.84;;;26.34;37.44
76156;BME280;64906;51.290;7.348;2023-07-08T12:50:43;98779.22;;;26.40;37.53
76156;BME280;64906;51.290;7.348;2023-07-08T12:53:10;98774.81;;;26.39;37.58
76156;BME280;64906;51.290;7.348;2023-07-08T12:55:38;98781.34;;;26.34;37.66
76156;BME280;64906;51.290;7.348;2023-07-08T12:58:05;98781.66;;;26.41;37.46
76156;BME280;64906;51.290;7.348;2023-07-08T13:00:37;98774.00;;;26.38;37.45
76156;BME280;64906;51.290;7.348;2023-07-08T13:03:24;98765.06;;;26.41;37.87
76156;BME280;64906;51.290;7.348;2023-07-08T13:05:52;98771.88;;;26.44;37.57
76156;BME280;64906;51.290;7.348;2023-07-08T13:08:21;98762.91;;;26.47;37.72
76156;BME280;64906;51.290;7.348;2023-07-08T13:10:50;98767.75;;;26.50;37.54
76156;BME280;64906;51.290;7.348;2023-07-08T13:13:21;98768.47;;;26.38;37.58
76156;BME280;64906;51.290;7.348;2023-07-08T13:15:47;98769.75;;;26.50;37.75
76156;BME280;64906;51.290;7.348;2023-07-08T13:18:18;98771.00;;;26.52;37.67
76156;BME280;64906;51.290;7.348;2023-07-08T13:20:51;98762.72;;;26.52;37.49
76156;BME280;64906;51.290;7.348;2023-07-08T13:23:18;98769.69;;;26.58;37.49
76156;BME280;64906;51.290;7.348;2023-07-08T13:25:46;98771.81;;;26.61;37.53
76156;BME280;64906;51.290;7.348;2023-07-08T13:28:29;98769.50;;;26.63;37.32
76156;BME280;64906;51.290;7.348;2023-07-08T13:30:58;98769.81;;;26.62;36.98
76156;BME280;64906;51.290;7.348;2023-07-08T13:33:32;98775.03;;;26.63;37.19
76156;BME280;64906;51.290;7.348;2023-07-08T13:36:01;98770.16;;;26.60;37.54
76156;BME280;64906;51.290;7.348;2023-07-08T13:38:32;98778.94;;;26.62;37.42
76156;BME280;64906;51.290;7.348;2023-07-08T13:41:02;98773.41;;;26.62;37.52
76156;BME280;64906;51.290;7.348;2023-07-08T13:43:30;98777.19;;;26.66;37.51
76156;BME280;64906;51.290;7.348;2023-07-08T13:45:56;98769.81;;;26.70;37.15
76156;BME280;64906;51.290;7.348;2023-07-08T13:48:40;98776.66;;;26.73;37.14
76156;BME280;64906;51.290;7.348;2023-07-08T13:51:09;98777.13;;;26.75;37.04
76156;BME280;64906;51.290;7.348;2023-07-08T13:56:21;98769.78;;;26.79;36.67
76156;BME280;64906;51.290;7.348;2023-07-08T13:58:50;98774.53;;;26.70;36.68
76156;BME280;64906;51.290;7.348;2023-07-08T14:01:24;98777.25;;;26.78;36.68